sensor_id;sensor_type;location;lat;lon;timestamp;P1;durP1;ratioP1;P2;durP2;ratioP2
63280;SDS011;49406;51.044;3.766;2023-04-03T00:00:47;11.10;;;5.00;;
63280;SDS011;49406;51.044;3.766;2023-04-03T00:03:20;7.20;;;4.10;;
63280;SDS011;49406;51.044;3.766;2023-04-03T00:05:52;23.40;;;6.40;;
63280;SDS011;49406;51.044;3.766;2023-04-03T00:08:26;22.10;;;8.50;;
63280;SDS011;49406;51.044;3.766;2023-04-03T00:11:01;35.20;;;12.80;;
63280;SDS011;49406;51.044;3.766;2023-04-03T00:13:35;30.20;;;12.30;;
63280;SDS011;49406;51.044;3.766;2023-04-03T00:16:09;14.50;;;9.20;;
63280;SDS011;49406;51.044;3.766;2023-04-03T00:18:42;9.40;;;4.20;;
63280;SDS011;49406;51.044;3.766;2023-04-03T00:21:15;15.70;;;5.40;;
63280;SDS011;49406;51.044;3.766;2023-04-03T00:23:48;8.00;;;3.80;;
63280;SDS011;49406;51.044;3.766;2023-04-03T00:26:21;5.10;;;3.40;;
63280;SDS011;49406;51.044;3.766;2023-04-03T00:28:53;6.70;;;3.30;;
63280;SDS011;49406;51.044;3.766;2023-04-03T00:31:27;6.90;;;3.50;;
63280;SDS011;49406;51.044;3.766;2023-04-03T00:33:59;3.30;;;2.10;;
63280;SDS011;49406;51.044;3.766;2023-04-03T00:36:32;5.50;;;3.80;;
63280;SDS011;49406;51.044;3.766;2023-04-03T00:39:04;6.40;;;2.30;;
63280;SDS011;49406;51.044;3.766;2023-04-03T00:41:37;5.20;;;2.00;;
63280;SDS011;49406;51.044;3.766;2023-04-03T00:44:22;1.80;;;0.80;;
63280;SDS011;49406;51.044;3.766;2023-04-03T00:47:10;1.40;;;0.60;;
63280;SDS011;49406;51.044;3.766;2023-04-03T00:49:45;5.10;;;2.90;;
63280;SDS011;49406;51.044;3.766;2023-04-03T00:52:18;23.70;;;10.00;;
63280;SDS011;49406;51.044;3.766;2023-04-03T00:54:56;27.80;;;10.10;;
63280;SDS011;49406;51.044;3.766;2023-04-03T00:57:31;23.20;;;10.90;;
63280;SDS011;49406;51.044;3.766;2023-04-03T01:00:06;25.80;;;9.80;;
63280;SDS011;49406;51.044;3.766;2023-04-03T01:02:42;32.80;;;10.70;;
63280;SDS011;49406;51.044;3.766;2023-04-03T01:05:14;17.50;;;8.50;;
63280;SDS011;49406;51.044;3.766;2023-04-03T01:07:48;9.80;;;5.20;;
63280;SDS011;49406;51.044;3.766;2023-04-03T01:10:22;7.50;;;4.30;;
63280;SDS011;49406;51.044;3.766;2023-04-03T01:12:56;6.40;;;4.00;;
63280;SDS011;49406;51.044;3.766;2023-04-03T01:15:31;7.30;;;3.80;;
63280;SDS011;49406;51.044;3.766;2023-04-03T01:18:08;2.50;;;1.50;;
63280;SDS011;49406;51.044;3.766;2023-04-03T01:23:54;7.00;;;2.60;;
63280;SDS011;49406;51.044;3.766;2023-04-03T01:26:35;9.90;;;5.60;;
63280;SDS011;49406;51.044;3.766;2023-04-03T01:29:08;15.70;;;6.00;;
63280;SDS011;49406;51.044;3.766;2023-04-03T01:31:45;35.10;;;12.30;;
63280;SDS011;49406;51.044;3.766;2023-04-03T01:34:20;35.80;;;10.50;;
63280;SDS011;49406;51.044;3.766;2023-04-03T01:36:53;25.00;;;11.30;;
63280;SDS011;49406;51.044;3.766;2023-04-03T01:39:26;24.30;;;9.00;;
63280;SDS011;49406;51.044;3.766;2023-04-03T01:41:58;8.00;;;4.50;;
63280;SDS011;49406;51.044;3.766;2023-04-03T01:44:31;7.10;;;3.80;;
63280;SDS011;49406;51.044;3.766;2023-04-03T01:49:37;6.70;;;2.70;;
63280;SDS011;49406;51.044;3.766;2023-04-03T01:52:09;3.20;;;2.20;;
63280;SDS011;49406;51.044;3.766;2023-04-03T01:54:42;4.50;;;2.90;;
63280;SDS011;49406;51.044;3.766;2023-04-03T01:57:15;2.60;;;1.30;;
63280;SDS011;49406;51.044;3.766;2023-04-03T01:59:47;10.70;;;4.30;;
63280;SDS011;49406;51.044;3.766;2023-04-03T02:02:20;19.90;;;8.00;;
63280;SDS011;49406;51.044;3.766;2023-04-03T02:04:52;21.80;;;8.50;;
63280;SDS011;49406;51.044;3.766;2023-04-03T02:07:25;22.70;;;7.00;;
63280;SDS011;49406;51.044;3.766;2023-04-03T02:09:58;20.40;;;8.70;;
63280;SDS011;49406;51.044;3.766;2023-04-03T02:12:30;4.80;;;3.60;;
63280;SDS011;49406;51.044;3.766;2023-04-03T02:15:04;4.20;;;2.60;;
63280;SDS011;49406;51.044;3.766;2023-04-03T02:17:38;7.70;;;4.90;;
63280;SDS011;49406;51.044;3.766;2023-04-03T02:20:10;8.20;;;2.50;;
63280;SDS011;49406;51.044;3.766;2023-04-03T02:22:43;6.00;;;2.60;;
63280;SDS011;49406;51.044;3.766;2023-04-03T02:25:16;14.40;;;2.90;;
63280;SDS011;49406;51.044;3.766;2023-04-03T02:27:49;26.90;;;8.20;;
63280;SDS011;49406;51.044;3.766;2023-04-03T02:30:21;24.30;;;8.70;;
63280;SDS011;49406;51.044;3.766;2023-04-03T02:32:54;28.60;;;10.50;;
63280;SDS011;49406;51.044;3.766;2023-04-03T02:35:26;19.10;;;7.00;;
63280;SDS011;49406;51.044;3.766;2023-04-03T02:37:59;8.60;;;3.80;;
63280;SDS011;49406;51.044;3.766;2023-04-03T02:40:32;4.50;;;3.00;;
63280;SDS011;49406;51.044;3.766;2023-04-03T02:45:36;8.20;;;3.70;;
63280;SDS011;49406;51.044;3.766;2023-04-03T02:50:40;3.60;;;1.90;;
63280;SDS011;49406;51.044;3.766;2023-04-03T02:53:12;3.30;;;1.50;;
63280;SDS011;49406;51.044;3.766;2023-04-03T02:55:46;3.40;;;1.80;;
63280;SDS011;49406;51.044;3.766;2023-04-03T02:58:19;2.30;;;1.70;;
63280;SDS011;49406;51.044;3.766;2023-04-03T03:00:51;3.60;;;2.20;;
63280;SDS011;49406;51.044;3.766;2023-04-03T03:03:24;1.70;;;0.70;;
63280;SDS011;49406;51.044;3.766;2023-04-03T03:06:07;1.40;;;0.80;;
63280;SDS011;49406;51.044;3.766;2023-04-03T03:08:42;9.90;;;5.30;;
63280;SDS011;49406;51.044;3.766;2023-04-03T03:11:14;17.60;;;6.90;;
63280;SDS011;49406;51.044;3.766;2023-04-03T03:13:47;17.40;;;8.30;;
63280;SDS011;49406;51.044;3.766;2023-04-03T03:16:20;25.40;;;8.90;;
63280;SDS011;49406;51.044;3.766;2023-04-03T03:18:52;28.50;;;11.80;;
63280;SDS011;49406;51.044;3.766;2023-04-03T03:21:25;25.70;;;10.40;;
63280;SDS011;49406;51.044;3.766;2023-04-03T03:23:57;16.90;;;8.80;;
63280;SDS011;49406;51.044;3.766;2023-04-03T03:26:30;15.90;;;6.40;;
63280;SDS011;49406;51.044;3.766;2023-04-03T03:29:03;26.50;;;8.30;;
63280;SDS011;49406;51.044;3.766;2023-04-03T03:31:35;14.80;;;4.60;;
63280;SDS011;49406;51.044;3.766;2023-04-03T03:34:08;6.40;;;3.20;;
63280;SDS011;49406;51.044;3.766;2023-04-03T03:36:40;9.80;;;4.20;;
63280;SDS011;49406;51.044;3.766;2023-04-03T03:39:13;3.50;;;1.90;;
63280;SDS011;49406;51.044;3.766;2023-04-03T03:41:46;2.80;;;1.50;;
63280;SDS011;49406;51.044;3.766;2023-04-03T03:44:20;4.80;;;1.50;;
63280;SDS011;49406;51.044;3.766;2023-04-03T03:46:53;1.70;;;0.70;;
63280;SDS011;49406;51.044;3.766;2023-04-03T03:49:25;1.70;;;0.90;;
63280;SDS011;49406;51.044;3.766;2023-04-03T03:51:58;6.30;;;1.20;;
63280;SDS011;49406;51.044;3.766;2023-04-03T03:54:30;1.00;;;0.50;;
63280;SDS011;49406;51.044;3.766;2023-04-03T03:57:03;2.80;;;1.70;;
63280;SDS011;49406;51.044;3.766;2023-04-03T03:59:36;1.60;;;0.90;;
63280;SDS011;49406;51.044;3.766;2023-04-03T04:02:09;5.00;;;3.10;;
63280;SDS011;49406;51.044;3.766;2023-04-03T04:04:42;7.70;;;3.60;;
63280;SDS011;49406;51.044;3.766;2023-04-03T04:07:14;13.50;;;5.20;;
63280;SDS011;49406;51.044;3.766;2023-04-03T04:09:47;24.30;;;8.90;;
63280;SDS011;49406;51.044;3.766;2023-04-03T04:12:20;17.90;;;8.00;;
63280;SDS011;49406;51.044;3.766;2023-04-03T04:14:52;23.90;;;9.50;;
63280;SDS011;49406;51.044;3.766;2023-04-03T04:17:25;15.60;;;3.20;;
63280;SDS011;49406;51.044;3.766;2023-04-03T04:19:57;5.90;;;3.90;;
63280;SDS011;49406;51.044;3.766;2023-04-03T04:22:30;5.90;;;3.20;;
63280;SDS011;49406;51.044;3.766;2023-04-03T04:25:03;6.50;;;2.90;;
63280;SDS011;49406;51.044;3.766;2023-04-03T04:27:36;6.30;;;3.30;;
63280;SDS011;49406;51.044;3.766;2023-04-03T04:30:10;2.40;;;1.90;;
63280;SDS011;49406;51.044;3.766;2023-04-03T04:32:44;2.90;;;1.40;;
63280;SDS011;49406;51.044;3.766;2023-04-03T04:35:16;3.70;;;1.50;;
63280;SDS011;49406;51.044;3.766;2023-04-03T04:37:49;5.80;;;2.00;;
63280;SDS011;49406;51.044;3.766;2023-04-03T04:40:22;3.10;;;1.60;;
63280;SDS011;49406;51.044;3.766;2023-04-03T04:42:54;1.70;;;0.80;;
63280;SDS011;49406;51.044;3.766;2023-04-03T04:45:27;0.50;;;0.40;;
63280;SDS011;49406;51.044;3.766;2023-04-03T04:50:31;9.70;;;3.40;;
63280;SDS011;49406;51.044;3.766;2023-04-03T04:53:03;5.40;;;3.50;;
63280;SDS011;49406;51.044;3.766;2023-04-03T04:55:36;16.70;;;8.60;;
63280;SDS011;49406;51.044;3.766;2023-04-03T04:58:09;27.00;;;10.20;;
63280;SDS011;49406;51.044;3.766;2023-04-03T05:00:41;36.50;;;12.70;;
63280;SDS011;49406;51.044;3.766;2023-04-03T05:03:14;24.40;;;10.70;;
63280;SDS011;49406;51.044;3.766;2023-04-03T05:05:47;8.20;;;3.40;;
63280;SDS011;49406;51.044;3.766;2023-04-03T05:08:19;6.20;;;4.10;;
63280;SDS011;49406;51.044;3.766;2023-04-03T05:10:52;4.40;;;2.30;;
63280;SDS011;49406;51.044;3.766;2023-04-03T05:13:24;4.20;;;2.20;;
63280;SDS011;49406;51.044;3.766;2023-04-03T05:18:28;2.30;;;1.10;;
63280;SDS011;49406;51.044;3.766;2023-04-03T05:21:01;3.60;;;2.40;;
63280;SDS011;49406;51.044;3.766;2023-04-03T05:23:34;12.10;;;4.50;;
63280;SDS011;49406;51.044;3.766;2023-04-03T05:26:06;16.60;;;6.50;;
63280;SDS011;49406;51.044;3.766;2023-04-03T05:28:39;10.90;;;4.00;;
63280;SDS011;49406;51.044;3.766;2023-04-03T05:31:12;7.70;;;3.00;;
63280;SDS011;49406;51.044;3.766;2023-04-03T05:33:45;10.30;;;4.20;;
63280;SDS011;49406;51.044;3.766;2023-04-03T05:36:17;11.30;;;5.40;;
63280;SDS011;49406;51.044;3.766;2023-04-03T05:38:50;18.10;;;8.30;;
63280;SDS011;49406;51.044;3.766;2023-04-03T05:41:23;27.00;;;6.30;;
63280;SDS011;49406;51.044;3.766;2023-04-03T05:43:56;10.70;;;4.30;;
63280;SDS011;49406;51.044;3.766;2023-04-03T05:46:28;10.30;;;4.30;;
63280;SDS011;49406;51.044;3.766;2023-04-03T05:49:01;9.20;;;3.60;;
63280;SDS011;49406;51.044;3.766;2023-04-03T05:51:35;12.70;;;4.30;;
63280;SDS011;49406;51.044;3.766;2023-04-03T05:54:10;7.20;;;4.30;;
63280;SDS011;49406;51.044;3.766;2023-04-03T05:59:19;3.90;;;2.90;;
63280;SDS011;49406;51.044;3.766;2023-04-03T06:01:52;7.40;;;4.10;;
63280;SDS011;49406;51.044;3.766;2023-04-03T06:04:25;8.80;;;4.10;;
63280;SDS011;49406;51.044;3.766;2023-04-03T06:06:57;7.50;;;4.60;;
63280;SDS011;49406;51.044;3.766;2023-04-03T06:09:30;6.10;;;4.50;;
63280;SDS011;49406;51.044;3.766;2023-04-03T06:12:03;7.90;;;5.30;;
63280;SDS011;49406;51.044;3.766;2023-04-03T06:14:35;7.00;;;5.10;;
63280;SDS011;49406;51.044;3.766;2023-04-03T06:17:08;6.30;;;4.30;;
63280;SDS011;49406;51.044;3.766;2023-04-03T06:19:41;7.70;;;4.30;;
63280;SDS011;49406;51.044;3.766;2023-04-03T06:22:14;18.90;;;4.70;;
63280;SDS011;49406;51.044;3.766;2023-04-03T06:24:47;6.10;;;4.50;;
63280;SDS011;49406;51.044;3.766;2023-04-03T06:27:19;4.50;;;2.40;;
63280;SDS011;49406;51.044;3.766;2023-04-03T06:29:52;2.60;;;1.70;;
63280;SDS011;49406;51.044;3.766;2023-04-03T06:32:24;4.70;;;3.30;;
63280;SDS011;49406;51.044;3.766;2023-04-03T06:34:57;9.30;;;5.00;;
63280;SDS011;49406;51.044;3.766;2023-04-03T06:37:31;6.60;;;4.20;;
63280;SDS011;49406;51.044;3.766;2023-04-03T06:40:04;6.40;;;4.40;;
63280;SDS011;49406;51.044;3.766;2023-04-03T06:42:39;7.80;;;4.00;;
63280;SDS011;49406;51.044;3.766;2023-04-03T06:45:11;6.40;;;4.00;;
63280;SDS011;49406;51.044;3.766;2023-04-03T06:47:44;4.50;;;2.90;;
63280;SDS011;49406;51.044;3.766;2023-04-03T06:50:17;4.60;;;2.00;;
63280;SDS011;49406;51.044;3.766;2023-04-03T06:52:49;4.00;;;3.30;;
63280;SDS011;49406;51.044;3.766;2023-04-03T06:55:22;5.70;;;3.30;;
63280;SDS011;49406;51.044;3.766;2023-04-03T06:57:55;6.70;;;3.20;;
63280;SDS011;49406;51.044;3.766;2023-04-03T07:00:27;13.90;;;2.90;;
63280;SDS011;49406;51.044;3.766;2023-04-03T07:03:00;5.60;;;3.50;;
63280;SDS011;49406;51.044;3.766;2023-04-03T07:05:33;5.40;;;3.70;;
63280;SDS011;49406;51.044;3.766;2023-04-03T07:08:06;5.40;;;4.90;;
63280;SDS011;49406;51.044;3.766;2023-04-03T07:10:38;6.10;;;2.00;;
63280;SDS011;49406;51.044;3.766;2023-04-03T07:13:11;5.00;;;3.20;;
63280;SDS011;49406;51.044;3.766;2023-04-03T07:15:44;8.10;;;5.20;;
63280;SDS011;49406;51.044;3.766;2023-04-03T07:18:16;2.70;;;1.20;;
63280;SDS011;49406;51.044;3.766;2023-04-03T07:20:49;3.70;;;1.90;;
63280;SDS011;49406;51.044;3.766;2023-04-03T07:23:23;6.70;;;3.10;;
63280;SDS011;49406;51.044;3.766;2023-04-03T07:25:56;5.00;;;3.30;;
63280;SDS011;49406;51.044;3.766;2023-04-03T07:28:28;5.70;;;3.50;;
63280;SDS011;49406;51.044;3.766;2023-04-03T07:31:02;3.00;;;2.10;;
63280;SDS011;49406;51.044;3.766;2023-04-03T07:33:37;4.40;;;2.60;;
63280;SDS011;49406;51.044;3.766;2023-04-03T07:36:11;4.20;;;2.90;;
63280;SDS011;49406;51.044;3.766;2023-04-03T07:38:47;5.50;;;4.40;;
63280;SDS011;49406;51.044;3.766;2023-04-03T07:41:20;4.90;;;3.10;;
63280;SDS011;49406;51.044;3.766;2023-04-03T07:43:54;7.40;;;2.90;;
63280;SDS011;49406;51.044;3.766;2023-04-03T07:46:27;4.40;;;3.30;;
63280;SDS011;49406;51.044;3.766;2023-04-03T07:49:00;2.00;;;1.60;;
63280;SDS011;49406;51.044;3.766;2023-04-03T07:51:32;8.00;;;3.20;;
63280;SDS011;49406;51.044;3.766;2023-04-03T07:54:05;2.60;;;1.80;;
63280;SDS011;49406;51.044;3.766;2023-04-03T07:56:38;4.80;;;3.40;;
63280;SDS011;49406;51.044;3.766;2023-04-03T07:59:10;5.90;;;3.70;;
63280;SDS011;49406;51.044;3.766;2023-04-03T08:01:43;4.10;;;3.60;;
63280;SDS011;49406;51.044;3.766;2023-04-03T08:04:15;5.20;;;3.20;;
63280;SDS011;49406;51.044;3.766;2023-04-03T08:06:48;2.80;;;2.40;;
63280;SDS011;49406;51.044;3.766;2023-04-03T08:09:22;5.90;;;3.70;;
63280;SDS011;49406;51.044;3.766;2023-04-03T08:11:54;3.70;;;3.00;;
63280;SDS011;49406;51.044;3.766;2023-04-03T08:14:27;6.90;;;4.70;;
63280;SDS011;49406;51.044;3.766;2023-04-03T08:17:01;7.80;;;5.50;;
63280;SDS011;49406;51.044;3.766;2023-04-03T08:19:35;6.30;;;5.20;;
63280;SDS011;49406;51.044;3.766;2023-04-03T08:22:08;7.00;;;4.50;;
63280;SDS011;49406;51.044;3.766;2023-04-03T08:24:41;8.00;;;4.80;;
63280;SDS011;49406;51.044;3.766;2023-04-03T08:27:14;3.10;;;2.10;;
63280;SDS011;49406;51.044;3.766;2023-04-03T08:29:46;5.60;;;2.50;;
63280;SDS011;49406;51.044;3.766;2023-04-03T08:32:19;3.40;;;3.10;;
63280;SDS011;49406;51.044;3.766;2023-04-03T08:34:51;5.10;;;3.10;;
63280;SDS011;49406;51.044;3.766;2023-04-03T08:37:24;4.70;;;3.10;;
63280;SDS011;49406;51.044;3.766;2023-04-03T08:39:57;2.20;;;2.00;;
63280;SDS011;49406;51.044;3.766;2023-04-03T08:42:33;1.90;;;1.30;;
63280;SDS011;49406;51.044;3.766;2023-04-03T08:45:12;3.00;;;1.90;;
63280;SDS011;49406;51.044;3.766;2023-04-03T08:47:48;6.00;;;2.10;;
63280;SDS011;49406;51.044;3.766;2023-04-03T08:50:30;5.70;;;1.70;;
63280;SDS011;49406;51.044;3.766;2023-04-03T08:53:09;4.20;;;2.30;;
63280;SDS011;49406;51.044;3.766;2023-04-03T08:55:46;1.50;;;0.70;;
63280;SDS011;49406;51.044;3.766;2023-04-03T08:58:21;2.80;;;1.90;;
63280;SDS011;49406;51.044;3.766;2023-04-03T09:00:57;2.50;;;1.50;;
63280;SDS011;49406;51.044;3.766;2023-04-03T09:03:34;2.40;;;1.80;;
63280;SDS011;49406;51.044;3.766;2023-04-03T09:06:10;3.90;;;3.10;;
63280;SDS011;49406;51.044;3.766;2023-04-03T09:08:46;2.80;;;1.40;;
63280;SDS011;49406;51.044;3.766;2023-04-03T09:11:24;2.30;;;1.90;;
63280;SDS011;49406;51.044;3.766;2023-04-03T09:14:01;2.20;;;1.90;;
63280;SDS011;49406;51.044;3.766;2023-04-03T09:16:43;1.90;;;1.00;;
63280;SDS011;49406;51.044;3.766;2023-04-03T09:19:21;6.40;;;2.70;;
63280;SDS011;49406;51.044;3.766;2023-04-03T09:22:11;2.40;;;1.20;;
63280;SDS011;49406;51.044;3.766;2023-04-03T09:24:50;4.50;;;2.90;;
63280;SDS011;49406;51.044;3.766;2023-04-03T09:27:28;4.10;;;2.40;;
63280;SDS011;49406;51.044;3.766;2023-04-03T09:30:01;2.20;;;1.80;;
63280;SDS011;49406;51.044;3.766;2023-04-03T09:32:35;5.10;;;2.10;;
63280;SDS011;49406;51.044;3.766;2023-04-03T09:35:15;5.50;;;2.30;;
63280;SDS011;49406;51.044;3.766;2023-04-03T09:37:52;2.70;;;1.40;;
63280;SDS011;49406;51.044;3.766;2023-04-03T09:40:28;1.80;;;1.10;;
63280;SDS011;49406;51.044;3.766;2023-04-03T09:43:25;4.10;;;1.90;;
63280;SDS011;49406;51.044;3.766;2023-04-03T09:49:03;1.70;;;1.30;;
63280;SDS011;49406;51.044;3.766;2023-04-03T09:51:36;2.20;;;1.10;;
63280;SDS011;49406;51.044;3.766;2023-04-03T09:54:25;2.30;;;0.80;;
63280;SDS011;49406;51.044;3.766;2023-04-03T09:57:11;2.50;;;1.60;;
63280;SDS011;49406;51.044;3.766;2023-04-03T09:59:46;3.30;;;1.20;;
63280;SDS011;49406;51.044;3.766;2023-04-03T10:02:32;4.50;;;1.60;;
63280;SDS011;49406;51.044;3.766;2023-04-03T10:05:26;4.60;;;2.00;;
63280;SDS011;49406;51.044;3.766;2023-04-03T10:08:09;0.40;;;0.40;;
63280;SDS011;49406;51.044;3.766;2023-04-03T10:13:50;6.10;;;2.20;;
63280;SDS011;49406;51.044;3.766;2023-04-03T10:16:29;2.60;;;1.70;;
63280;SDS011;49406;51.044;3.766;2023-04-03T10:22:15;3.90;;;2.00;;
63280;SDS011;49406;51.044;3.766;2023-04-03T10:24:54;1.80;;;1.30;;
63280;SDS011;49406;51.044;3.766;2023-04-03T10:27:37;7.60;;;1.00;;
63280;SDS011;49406;51.044;3.766;2023-04-03T10:33:19;4.40;;;1.40;;
63280;SDS011;49406;51.044;3.766;2023-04-03T10:36:04;0.80;;;0.40;;
63280;SDS011;49406;51.044;3.766;2023-04-03T10:38:46;0.60;;;0.30;;
63280;SDS011;49406;51.044;3.766;2023-04-03T10:41:29;2.00;;;1.00;;
63280;SDS011;49406;51.044;3.766;2023-04-03T10:44:14;3.10;;;2.10;;
63280;SDS011;49406;51.044;3.766;2023-04-03T10:46:53;4.30;;;1.30;;
63280;SDS011;49406;51.044;3.766;2023-04-03T10:49:38;3.70;;;1.50;;
63280;SDS011;49406;51.044;3.766;2023-04-03T10:52:22;2.60;;;1.10;;
63280;SDS011;49406;51.044;3.766;2023-04-03T10:55:02;2.10;;;0.90;;
63280;SDS011;49406;51.044;3.766;2023-04-03T10:57:47;1.80;;;0.90;;
63280;SDS011;49406;51.044;3.766;2023-04-03T11:00:21;3.30;;;1.40;;
63280;SDS011;49406;51.044;3.766;2023-04-03T11:03:03;1.50;;;0.90;;
63280;SDS011;49406;51.044;3.766;2023-04-03T11:05:40;3.60;;;0.70;;
63280;SDS011;49406;51.044;3.766;2023-04-03T11:08:19;3.20;;;1.20;;
63280;SDS011;49406;51.044;3.766;2023-04-03T11:10:59;1.30;;;0.80;;
63280;SDS011;49406;51.044;3.766;2023-04-03T11:13:35;1.90;;;1.00;;
63280;SDS011;49406;51.044;3.766;2023-04-03T11:16:13;1.60;;;0.80;;
63280;SDS011;49406;51.044;3.766;2023-04-03T11:18:52;4.20;;;1.00;;
63280;SDS011;49406;51.044;3.766;2023-04-03T11:21:33;2.60;;;0.80;;
63280;SDS011;49406;51.044;3.766;2023-04-03T11:24:11;2.00;;;1.20;;
63280;SDS011;49406;51.044;3.766;2023-04-03T11:26:52;0.80;;;0.60;;
63280;SDS011;49406;51.044;3.766;2023-04-03T11:29:28;4.00;;;0.80;;
63280;SDS011;49406;51.044;3.766;2023-04-03T11:32:08;1.20;;;0.60;;
63280;SDS011;49406;51.044;3.766;2023-04-03T11:34:49;2.20;;;0.50;;
63280;SDS011;49406;51.044;3.766;2023-04-03T11:37:28;0.90;;;0.50;;
63280;SDS011;49406;51.044;3.766;2023-04-03T11:40:06;1.40;;;0.60;;
63280;SDS011;49406;51.044;3.766;2023-04-03T11:42:52;1.90;;;1.00;;
63280;SDS011;49406;51.044;3.766;2023-04-03T11:45:37;5.00;;;1.50;;
63280;SDS011;49406;51.044;3.766;2023-04-03T12:00:49;2.50;;;1.40;;
63280;SDS011;49406;51.044;3.766;2023-04-03T12:09:56;0.60;;;0.50;;
63280;SDS011;49406;51.044;3.766;2023-04-03T12:12:33;1.20;;;0.70;;
63280;SDS011;49406;51.044;3.766;2023-04-03T12:15:23;1.80;;;0.90;;
63280;SDS011;49406;51.044;3.766;2023-04-03T12:18:37;2.00;;;0.70;;
63280;SDS011;49406;51.044;3.766;2023-04-03T12:21:13;3.90;;;0.80;;
63280;SDS011;49406;51.044;3.766;2023-04-03T12:23:59;0.70;;;0.60;;
63280;SDS011;49406;51.044;3.766;2023-04-03T12:26:36;1.80;;;0.90;;
63280;SDS011;49406;51.044;3.766;2023-04-03T12:29:14;0.80;;;0.40;;
63280;SDS011;49406;51.044;3.766;2023-04-03T12:31:56;2.00;;;0.80;;
63280;SDS011;49406;51.044;3.766;2023-04-03T12:34:46;1.20;;;0.60;;
63280;SDS011;49406;51.044;3.766;2023-04-03T12:37:34;1.00;;;0.60;;
63280;SDS011;49406;51.044;3.766;2023-04-03T12:40:24;2.20;;;1.00;;
63280;SDS011;49406;51.044;3.766;2023-04-03T12:43:05;1.50;;;0.80;;
63280;SDS011;49406;51.044;3.766;2023-04-03T12:45:56;0.80;;;0.60;;
63280;SDS011;49406;51.044;3.766;2023-04-03T12:48:37;1.30;;;0.70;;
63280;SDS011;49406;51.044;3.766;2023-04-03T12:51:18;2.20;;;1.30;;
63280;SDS011;49406;51.044;3.766;2023-04-03T12:53:54;0.90;;;0.60;;
63280;SDS011;49406;51.044;3.766;2023-04-03T12:56:31;1.80;;;0.90;;
63280;SDS011;49406;51.044;3.766;2023-04-03T12:59:15;1.80;;;0.90;;
63280;SDS011;49406;51.044;3.766;2023-04-03T13:01:56;1.40;;;0.90;;
63280;SDS011;49406;51.044;3.766;2023-04-03T13:04:31;2.30;;;1.10;;
63280;SDS011;49406;51.044;3.766;2023-04-03T13:07:03;2.20;;;1.00;;
63280;SDS011;49406;51.044;3.766;2023-04-03T13:09:36;3.70;;;1.20;;
63280;SDS011;49406;51.044;3.766;2023-04-03T13:12:10;2.00;;;0.70;;
63280;SDS011;49406;51.044;3.766;2023-04-03T13:14:51;4.00;;;0.90;;
63280;SDS011;49406;51.044;3.766;2023-04-03T13:17:26;1.10;;;0.60;;
63280;SDS011;49406;51.044;3.766;2023-04-03T13:20:09;2.10;;;1.00;;
63280;SDS011;49406;51.044;3.766;2023-04-03T13:22:46;2.00;;;0.80;;
63280;SDS011;49406;51.044;3.766;2023-04-03T13:25:23;0.20;;;0.20;;
63280;SDS011;49406;51.044;3.766;2023-04-03T13:27:58;1.70;;;1.10;;
63280;SDS011;49406;51.044;3.766;2023-04-03T13:30:33;0.80;;;0.70;;
63280;SDS011;49406;51.044;3.766;2023-04-03T13:33:18;3.30;;;1.10;;
63280;SDS011;49406;51.044;3.766;2023-04-03T13:35:55;5.10;;;1.30;;
63280;SDS011;49406;51.044;3.766;2023-04-03T13:38:30;2.70;;;0.70;;
63280;SDS011;49406;51.044;3.766;2023-04-03T13:41:05;2.00;;;0.20;;
63280;SDS011;49406;51.044;3.766;2023-04-03T13:43:57;10.80;;;1.30;;
63280;SDS011;49406;51.044;3.766;2023-04-03T13:46:48;1.70;;;0.90;;
63280;SDS011;49406;51.044;3.766;2023-04-03T13:49:22;1.60;;;0.90;;
63280;SDS011;49406;51.044;3.766;2023-04-03T13:52:18;0.20;;;0.20;;
63280;SDS011;49406;51.044;3.766;2023-04-03T13:54:57;1.60;;;0.80;;
63280;SDS011;49406;51.044;3.766;2023-04-03T13:57:31;3.50;;;0.60;;
63280;SDS011;49406;51.044;3.766;2023-04-03T14:02:56;0.90;;;0.50;;
63280;SDS011;49406;51.044;3.766;2023-04-03T14:05:29;0.70;;;0.40;;
63280;SDS011;49406;51.044;3.766;2023-04-03T14:08:02;2.30;;;0.70;;
63280;SDS011;49406;51.044;3.766;2023-04-03T14:10:35;1.60;;;0.70;;
63280;SDS011;49406;51.044;3.766;2023-04-03T14:13:09;1.10;;;0.60;;
63280;SDS011;49406;51.044;3.766;2023-04-03T14:15:44;1.30;;;0.70;;
63280;SDS011;49406;51.044;3.766;2023-04-03T14:18:19;2.60;;;1.00;;
63280;SDS011;49406;51.044;3.766;2023-04-03T14:20:52;1.70;;;1.00;;
63280;SDS011;49406;51.044;3.766;2023-04-03T14:23:25;1.10;;;0.40;;
63280;SDS011;49406;51.044;3.766;2023-04-03T14:25:57;1.10;;;0.30;;
63280;SDS011;49406;51.044;3.766;2023-04-03T14:28:31;1.40;;;0.60;;
63280;SDS011;49406;51.044;3.766;2023-04-03T14:31:04;2.60;;;0.90;;
63280;SDS011;49406;51.044;3.766;2023-04-03T14:33:38;1.40;;;0.80;;
63280;SDS011;49406;51.044;3.766;2023-04-03T14:36:12;2.00;;;1.10;;
63280;SDS011;49406;51.044;3.766;2023-04-03T14:38:46;1.10;;;0.50;;
63280;SDS011;49406;51.044;3.766;2023-04-03T14:41:21;2.40;;;0.90;;
63280;SDS011;49406;51.044;3.766;2023-04-03T14:43:57;0.60;;;0.60;;
63280;SDS011;49406;51.044;3.766;2023-04-03T14:46:30;0.50;;;0.50;;
63280;SDS011;49406;51.044;3.766;2023-04-03T14:49:08;0.90;;;0.60;;
63280;SDS011;49406;51.044;3.766;2023-04-03T14:51:45;0.20;;;0.20;;
63280;SDS011;49406;51.044;3.766;2023-04-03T14:54:19;1.30;;;0.80;;
63280;SDS011;49406;51.044;3.766;2023-04-03T14:56:57;1.10;;;0.50;;
63280;SDS011;49406;51.044;3.766;2023-04-03T14:59:31;0.10;;;0.10;;
63280;SDS011;49406;51.044;3.766;2023-04-03T15:02:08;1.70;;;0.80;;
63280;SDS011;49406;51.044;3.766;2023-04-03T15:04:55;1.70;;;1.20;;
63280;SDS011;49406;51.044;3.766;2023-04-03T15:07:29;1.30;;;0.60;;
63280;SDS011;49406;51.044;3.766;2023-04-03T15:10:17;0.80;;;0.40;;
63280;SDS011;49406;51.044;3.766;2023-04-03T15:12:52;1.80;;;1.10;;
63280;SDS011;49406;51.044;3.766;2023-04-03T15:15:27;2.00;;;0.90;;
63280;SDS011;49406;51.044;3.766;2023-04-03T15:18:01;0.90;;;0.50;;
63280;SDS011;49406;51.044;3.766;2023-04-03T15:20:33;2.50;;;1.60;;
63280;SDS011;49406;51.044;3.766;2023-04-03T15:23:06;1.60;;;1.20;;
63280;SDS011;49406;51.044;3.766;2023-04-03T15:25:40;1.30;;;0.90;;
63280;SDS011;49406;51.044;3.766;2023-04-03T15:28:16;2.30;;;0.80;;
63280;SDS011;49406;51.044;3.766;2023-04-03T15:30:53;2.70;;;1.00;;
63280;SDS011;49406;51.044;3.766;2023-04-03T15:33:25;1.60;;;0.90;;
63280;SDS011;49406;51.044;3.766;2023-04-03T15:35:58;1.10;;;0.60;;
63280;SDS011;49406;51.044;3.766;2023-04-03T15:38:31;5.40;;;2.10;;
63280;SDS011;49406;51.044;3.766;2023-04-03T15:41:04;1.30;;;0.70;;
63280;SDS011;49406;51.044;3.766;2023-04-03T15:43:37;0.70;;;0.20;;
63280;SDS011;49406;51.044;3.766;2023-04-03T15:46:09;2.30;;;0.80;;
63280;SDS011;49406;51.044;3.766;2023-04-03T15:48:44;1.60;;;0.70;;
63280;SDS011;49406;51.044;3.766;2023-04-03T15:51:16;1.30;;;0.90;;
63280;SDS011;49406;51.044;3.766;2023-04-03T15:53:49;1.90;;;1.10;;
63280;SDS011;49406;51.044;3.766;2023-04-03T15:56:21;0.60;;;0.40;;
63280;SDS011;49406;51.044;3.766;2023-04-03T15:58:54;2.00;;;0.80;;
63280;SDS011;49406;51.044;3.766;2023-04-03T16:01:26;1.40;;;1.00;;
63280;SDS011;49406;51.044;3.766;2023-04-03T16:03:59;2.40;;;0.70;;
63280;SDS011;49406;51.044;3.766;2023-04-03T16:06:32;4.70;;;0.90;;
63280;SDS011;49406;51.044;3.766;2023-04-03T16:09:05;1.40;;;0.70;;
63280;SDS011;49406;51.044;3.766;2023-04-03T16:11:38;1.80;;;0.90;;
63280;SDS011;49406;51.044;3.766;2023-04-03T16:14:11;0.40;;;0.40;;
63280;SDS011;49406;51.044;3.766;2023-04-03T16:16:43;0.40;;;0.30;;
63280;SDS011;49406;51.044;3.766;2023-04-03T16:19:16;1.50;;;0.50;;
63280;SDS011;49406;51.044;3.766;2023-04-03T16:21:49;1.10;;;0.60;;
63280;SDS011;49406;51.044;3.766;2023-04-03T16:24:21;1.50;;;1.20;;
63280;SDS011;49406;51.044;3.766;2023-04-03T16:26:54;1.50;;;0.70;;